Time;durP1;ratioP1;P1;durP2;ratioP2;P2;SDS_P1;SDS_P2;PMS_P1;PMS_P2;Temp;Humidity;BMP_temperature;BMP_pressure;BME280_temperature;BME280_humidity;BME280_pressure;Samples;Min_cycle;Max_cycle;Signal;HPM_P1;HPM_P2
2024/03/25 00:01:32;;;;;;;15.13;1.88;;;4.40;99.90;;;;;;5032216;28;20056;-84
2024/03/25 00:03:58;;;;;;;14.32;1.25;;;4.40;99.90;;;;;;5026072;28;20109;-86
2024/03/25 00:06:24;;;;;;;21.48;2.65;;;4.40;99.90;;;;;;5033735;28;20554;-87
2024/03/25 00:08:49;;;;;;;18.83;2.22;;;4.40;99.90;;;;;;5032107;28;20021;-86
2024/03/25 00:11:15;;;;;;;23.95;2.70;;;4.40;99.90;;;;;;5021084;28;20045;-86
2024/03/25 00:13:40;;;;;;;22.02;2.30;;;4.30;99.90;;;;;;5016886;28;20397;-85
2024/03/25 00:16:06;;;;;;;18.98;2.03;;;4.30;99.90;;;;;;5028922;28;20037;-86
2024/03/25 00:18:32;;;;;;;34.20;4.00;;;4.20;99.90;;;;;;5024680;28;20036;-84
2024/03/25 00:20:58;;;;;;;29.48;2.47;;;4.20;99.90;;;;;;5025899;28;20026;-85
2024/03/25 00:23:24;;;;;;;27.30;2.78;;;4.20;99.90;;;;;;5032531;28;20029;-86
2024/03/25 00:25:50;;;;;;;19.73;2.22;;;4.20;99.90;;;;;;5031039;28;20036;-85
2024/03/25 00:28:15;;;;;;;24.48;2.85;;;4.20;99.90;;;;;;5030748;28;20036;-85
2024/03/25 00:30:41;;;;;;;21.70;3.67;;;4.20;99.90;;;;;;5030330;28;20045;-86
2024/03/25 00:33:06;;;;;;;19.17;2.47;;;4.10;99.90;;;;;;5032654;28;20382;-86
2024/03/25 00:35:35;;;;;;;16.10;2.53;;;4.10;99.90;;;;;;5031332;28;20033;-85
2024/03/25 00:38:01;;;;;;;19.30;1.77;;;4.10;99.90;;;;;;5028195;28;20354;-85
2024/03/25 00:40:26;;;;;;;18.60;2.45;;;4.00;99.90;;;;;;5033106;28;20032;-85
2024/03/25 00:42:52;;;;;;;33.90;3.22;;;4.00;99.90;;;;;;5028883;28;20104;-86
2024/03/25 00:45:17;;;;;;;21.50;2.45;;;3.90;99.90;;;;;;5025177;28;20493;-85
2024/03/25 00:47:43;;;;;;;30.80;3.25;;;3.90;99.90;;;;;;5017292;28;20030;-85
2024/03/25 00:50:09;;;;;;;24.85;2.88;;;3.80;99.90;;;;;;5029530;28;20050;-85
2024/03/25 00:52:35;;;;;;;22.60;2.30;;;3.70;99.90;;;;;;5026323;28;20071;-85
2024/03/25 00:55:01;;;;;;;17.10;2.65;;;3.60;99.90;;;;;;5026412;28;20109;-85
2024/03/25 00:57:27;;;;;;;26.10;2.45;;;3.60;99.90;;;;;;5033379;28;20037;-86
2024/03/25 00:59:52;;;;;;;20.98;3.58;;;3.60;99.90;;;;;;5029842;28;20037;-85
2024/03/25 01:02:18;;;;;;;19.40;3.28;;;3.60;99.90;;;;;;5024445;28;20505;-85
2024/03/25 01:04:43;;;;;;;22.83;3.60;;;3.50;99.90;;;;;;5031040;28;20037;-85
2024/03/25 01:07:09;;;;;;;24.73;4.53;;;3.50;99.90;;;;;;5033588;28;20018;-85
2024/03/25 01:09:35;;;;;;;30.23;4.20;;;3.50;99.90;;;;;;5024721;28;20037;-85
2024/03/25 01:12:01;;;;;;;23.98;4.60;;;3.50;99.90;;;;;;5032153;28;20029;-84
2024/03/25 01:14:26;;;;;;;35.28;5.63;;;3.40;99.90;;;;;;5032394;28;20025;-84
2024/03/25 01:16:52;;;;;;;42.13;5.10;;;3.50;99.90;;;;;;5034116;28;20059;-84
2024/03/25 01:19:18;;;;;;;18.45;3.83;;;3.50;99.90;;;;;;5034874;28;20022;-84
2024/03/25 01:21:44;;;;;;;27.60;3.45;;;3.50;99.90;;;;;;5031495;28;20064;-84
2024/03/25 01:24:10;;;;;;;24.55;4.50;;;3.50;99.90;;;;;;5029028;28;20386;-84
2024/03/25 01:26:36;;;;;;;19.85;3.47;;;3.50;99.90;;;;;;5033275;28;20114;-83
2024/03/25 01:29:02;;;;;;;28.88;4.15;;;3.50;99.90;;;;;;5035568;28;20047;-84
2024/03/25 01:31:27;;;;;;;20.05;3.40;;;3.50;99.90;;;;;;5033989;28;20123;-82
2024/03/25 01:33:53;;;;;;;19.67;3.70;;;3.60;99.90;;;;;;5034207;28;20100;-81
2024/03/25 01:36:18;;;;;;;33.15;4.95;;;3.60;99.90;;;;;;5034387;28;20044;-83
2024/03/25 01:38:44;;;;;;;22.98;3.53;;;3.60;99.90;;;;;;5025858;28;20588;-83
2024/03/25 01:41:11;;;;;;;24.48;3.70;;;3.60;99.90;;;;;;5028753;28;20033;-83
2024/03/25 01:43:37;;;;;;;22.02;3.15;;;3.70;99.90;;;;;;5033655;28;20486;-82
2024/03/25 01:46:04;;;;;;;33.08;3.85;;;3.70;99.90;;;;;;5032720;28;20047;-84
2024/03/25 01:48:30;;;;;;;26.73;3.58;;;3.80;99.90;;;;;;5032553;28;20029;-82
2024/03/25 01:50:56;;;;;;;16.30;3.33;;;3.80;99.90;;;;;;5029376;28;20107;-83
2024/03/25 01:53:24;;;;;;;23.52;3.08;;;3.80;99.90;;;;;;5021928;28;20242;-82
2024/03/25 01:55:53;;;;;;;16.48;2.83;;;3.80;99.90;;;;;;5019576;28;20105;-83
2024/03/25 01:58:19;;;;;;;18.65;3.15;;;3.80;99.90;;;;;;5035053;28;20044;-82
2024/03/25 02:00:45;;;;;;;18.00;2.78;;;3.80;99.90;;;;;;5029459;28;20116;-81
2024/03/25 02:03:10;;;;;;;31.58;4.35;;;3.80;99.90;;;;;;5031638;28;20036;-86
2024/03/25 02:05:36;;;;;;;28.73;4.10;;;3.90;99.90;;;;;;5034091;28;20029;-86
2024/03/25 02:08:03;;;;;;;27.45;2.70;;;3.80;99.90;;;;;;5036246;28;20076;-85
2024/03/25 02:10:30;;;;;;;29.27;4.15;;;3.80;99.90;;;;;;5035421;28;20075;-85
2024/03/25 02:12:55;;;;;;;25.25;3.47;;;3.70;99.90;;;;;;5028245;28;20120;-85
2024/03/25 02:15:21;;;;;;;31.63;3.50;;;3.60;99.90;;;;;;5028265;28;20021;-85
2024/03/25 02:17:46;;;;;;;31.40;4.00;;;3.50;99.90;;;;;;5033341;28;20029;-85
2024/03/25 02:20:15;;;;;;;21.75;4.25;;;3.50;99.90;;;;;;5029841;28;20061;-85
2024/03/25 02:22:41;;;;;;;25.73;4.55;;;3.40;99.90;;;;;;5030721;28;20112;-85
2024/03/25 02:25:09;;;;;;;19.42;3.08;;;3.40;99.90;;;;;;5031668;28;20030;-85
2024/03/25 02:27:38;;;;;;;29.48;4.03;;;3.30;99.90;;;;;;5017890;28;20049;-85
2024/03/25 02:30:08;;;;;;;23.17;3.35;;;3.30;99.90;;;;;;5027407;28;20083;-84
2024/03/25 02:32:35;;;;;;;24.98;2.80;;;3.20;99.90;;;;;;5034132;28;20450;-82
2024/03/25 02:35:06;;;;;;;21.67;3.47;;;3.30;99.90;;;;;;5028653;28;20037;-83
2024/03/25 02:37:32;;;;;;;24.27;3.55;;;3.30;99.90;;;;;;5030483;28;20029;-83
2024/03/25 02:40:00;;;;;;;28.92;4.10;;;3.40;99.90;;;;;;5035207;28;20060;-83
2024/03/25 02:42:28;;;;;;;24.77;2.45;;;3.40;99.90;;;;;;5034522;28;20038;-83
2024/03/25 02:44:55;;;;;;;20.95;2.33;;;3.40;99.90;;;;;;5028280;28;20025;-83
2024/03/25 02:47:20;;;;;;;27.05;3.65;;;3.40;99.90;;;;;;5023623;28;20062;-84
2024/03/25 02:49:46;;;;;;;21.30;3.00;;;3.40;99.90;;;;;;5023903;28;20080;-83
2024/03/25 02:52:12;;;;;;;34.00;3.92;;;3.40;99.90;;;;;;5030484;28;20029;-83
2024/03/25 02:54:38;;;;;;;11.25;2.40;;;3.40;99.90;;;;;;5032939;28;20026;-83
2024/03/25 02:57:03;;;;;;;27.58;3.78;;;3.50;99.90;;;;;;5023731;28;20389;-83
2024/03/25 02:59:29;;;;;;;20.58;2.45;;;3.40;99.90;;;;;;5015693;28;20136;-83
2024/03/25 03:01:54;;;;;;;31.75;3.03;;;3.40;99.90;;;;;;5026965;28;20025;-82
2024/03/25 03:04:20;;;;;;;19.58;2.45;;;3.30;99.90;;;;;;5020407;28;20029;-82
2024/03/25 03:06:45;;;;;;;29.45;3.30;;;3.30;99.90;;;;;;5025116;28;20065;-83
2024/03/25 03:09:11;;;;;;;15.15;2.33;;;3.20;99.90;;;;;;5020423;28;20030;-83
2024/03/25 03:11:37;;;;;;;33.45;3.50;;;3.20;99.90;;;;;;5030519;28;20048;-84
2024/03/25 03:14:03;;;;;;;27.05;3.53;;;3.10;99.90;;;;;;5030157;28;20084;-84
2024/03/25 03:16:29;;;;;;;22.77;2.60;;;3.00;99.90;;;;;;5024609;28;20538;-84
2024/03/25 03:18:54;;;;;;;26.00;3.72;;;3.00;99.90;;;;;;5035193;28;20539;-83
2024/03/25 03:21:20;;;;;;;25.67;3.35;;;2.90;99.90;;;;;;5027842;28;20021;-84
2024/03/25 03:23:46;;;;;;;31.30;4.38;;;2.90;99.90;;;;;;5029637;28;20032;-83
2024/03/25 03:26:12;;;;;;;23.33;3.35;;;2.80;99.90;;;;;;5030605;28;20025;-81
2024/03/25 03:28:38;;;;;;;23.50;3.20;;;2.80;99.90;;;;;;5033566;28;20021;-81
2024/03/25 03:31:03;;;;;;;19.63;3.00;;;2.80;99.90;;;;;;5027337;28;20473;-82
2024/03/25 03:33:29;;;;;;;16.20;2.92;;;2.70;99.90;;;;;;5034837;28;20025;-81
2024/03/25 03:35:56;;;;;;;33.10;4.07;;;2.70;99.90;;;;;;5024475;28;20036;-81
2024/03/25 03:38:21;;;;;;;20.20;3.00;;;2.70;99.90;;;;;;5018590;28;20053;-80
2024/03/25 03:41:17;;;;;;;19.75;3.08;;;2.70;99.90;;;;;;5029791;28;20033;-80
2024/03/25 03:43:42;;;;;;;28.55;3.95;;;2.70;99.90;;;;;;5017453;28;20035;-81
2024/03/25 03:46:08;;;;;;;21.85;2.65;;;2.70;99.90;;;;;;5029648;28;20116;-81
2024/03/25 03:48:33;;;;;;;24.23;3.40;;;2.60;99.90;;;;;;5033674;28;20468;-81
2024/03/25 03:50:59;;;;;;;18.83;3.42;;;2.60;99.90;;;;;;5018504;28;20143;-81
2024/03/25 03:53:25;;;;;;;27.38;3.45;;;2.60;99.90;;;;;;5033930;28;20025;-80
2024/03/25 03:56:09;;;;;;;19.95;3.50;;;2.60;99.90;;;;;;5032025;28;20033;-83
2024/03/25 03:58:34;;;;;;;24.90;3.65;;;2.60;99.90;;;;;;5015474;28;20091;-84
2024/03/25 04:01:00;;;;;;;30.92;3.83;;;2.50;99.90;;;;;;5031282;28;20033;-85
2024/03/25 04:03:26;;;;;;;33.20;4.28;;;2.50;99.90;;;;;;5025474;28;20043;-85
2024/03/25 04:05:52;;;;;;;27.70;4.03;;;2.50;99.90;;;;;;5029336;28;20120;-84
2024/03/25 04:08:18;;;;;;;23.33;3.45;;;2.50;99.90;;;;;;5035534;28;20049;-84
2024/03/25 04:10:45;;;;;;;27.63;3.28;;;2.50;99.90;;;;;;5032662;28;20029;-85
2024/03/25 04:13:12;;;;;;;21.48;3.08;;;2.40;99.90;;;;;;5028491;28;20026;-84
2024/03/25 04:15:39;;;;;;;31.83;4.38;;;2.40;99.90;;;;;;5031755;28;20076;-85
2024/03/25 04:18:05;;;;;;;19.63;3.03;;;2.40;99.90;;;;;;5029209;28;20041;-84
2024/03/25 04:20:38;;;;;;;26.05;4.45;;;2.40;99.90;;;;;;5034361;28;20026;-83
2024/03/25 04:23:04;;;;;;;20.55;3.83;;;2.40;99.90;;;;;;5024771;28;20544;-81
2024/03/25 04:25:31;;;;;;;24.13;4.18;;;2.40;99.90;;;;;;5019930;28;20030;-81
2024/03/25 04:27:56;;;;;;;28.67;4.47;;;2.40;99.90;;;;;;5031552;28;20093;-83
2024/03/25 04:30:22;;;;;;;29.48;4.68;;;2.40;99.90;;;;;;5032250;28;20101;-81
2024/03/25 04:32:48;;;;;;;21.63;3.35;;;2.40;99.90;;;;;;5026370;28;20436;-81
2024/03/25 04:35:13;;;;;;;22.02;3.65;;;2.50;99.90;;;;;;5031557;28;20039;-80
2024/03/25 04:37:39;;;;;;;27.02;3.67;;;2.50;99.90;;;;;;5028511;28;20040;-81
2024/03/25 04:40:05;;;;;;;25.55;3.08;;;2.50;99.90;;;;;;5029872;28;20033;-81
2024/03/25 04:42:30;;;;;;;18.70;2.88;;;2.50;99.90;;;;;;5029278;28;20028;-82
2024/03/25 04:44:57;;;;;;;21.25;3.13;;;2.50;99.90;;;;;;5024566;28;20025;-83
2024/03/25 04:47:22;;;;;;;28.38;3.67;;;2.50;99.90;;;;;;5029499;28;20124;-82
2024/03/25 04:49:48;;;;;;;28.55;3.67;;;2.50;99.90;;;;;;5029392;28;20479;-83
2024/03/25 04:52:19;;;;;;;22.05;4.45;;;2.50;99.90;;;;;;5029557;28;20052;-83
2024/03/25 04:54:44;;;;;;;27.00;2.83;;;2.50;99.90;;;;;;5029699;28;20025;-82
2024/03/25 04:57:10;;;;;;;25.50;3.53;;;2.40;99.90;;;;;;5026019;28;20080;-84
2024/03/25 04:59:36;;;;;;;17.35;2.67;;;2.40;99.90;;;;;;5030992;28;20426;-84
2024/03/25 05:02:02;;;;;;;23.15;3.63;;;2.40;99.90;;;;;;5033137;28;20032;-84
2024/03/25 05:04:28;;;;;;;25.10;3.45;;;2.40;99.90;;;;;;5021386;28;20021;-83
2024/03/25 05:06:53;;;;;;;23.58;3.97;;;2.40;99.90;;;;;;5031389;28;20017;-84
2024/03/25 05:09:19;;;;;;;22.13;3.10;;;2.40;99.90;;;;;;5031510;28;20029;-84
2024/03/25 05:11:45;;;;;;;18.55;4.18;;;2.40;99.90;;;;;;5016220;28;20044;-84
2024/03/25 05:14:11;;;;;;;28.63;4.35;;;2.50;99.90;;;;;;5028246;28;20038;-84
2024/03/25 05:16:36;;;;;;;19.60;3.05;;;2.50;99.90;;;;;;5028889;28;20032;-85
2024/03/25 05:19:03;;;;;;;25.65;4.30;;;2.50;99.90;;;;;;5030593;28;20048;-84
2024/03/25 05:21:30;;;;;;;25.67;3.22;;;2.40;99.90;;;;;;5026067;28;20085;-86
2024/03/25 05:23:55;;;;;;;24.85;3.30;;;2.40;99.90;;;;;;5033561;28;20514;-86
2024/03/25 05:26:21;;;;;;;23.88;3.42;;;2.40;99.90;;;;;;5030569;28;20113;-87
2024/03/25 05:28:46;;;;;;;23.55;4.00;;;2.40;99.90;;;;;;5024269;28;20022;-87
2024/03/25 05:31:14;;;;;;;29.90;4.15;;;2.40;99.90;;;;;;5023998;28;20049;-88
2024/03/25 05:33:39;;;;;;;14.43;2.95;;;2.40;99.90;;;;;;5024815;28;20096;-88
2024/03/25 05:36:05;;;;;;;28.40;4.03;;;2.30;99.90;;;;;;5029644;28;20033;-88
2024/03/25 05:38:31;;;;;;;31.88;3.65;;;2.30;99.90;;;;;;5026467;28;20064;-88
2024/03/25 05:40:56;;;;;;;27.20;3.20;;;2.30;99.90;;;;;;5031112;28;20549;-89
2024/03/25 05:43:22;;;;;;;22.05;2.85;;;2.30;99.90;;;;;;5026662;28;21995;-86
2024/03/25 05:45:52;;;;;;;26.27;3.30;;;2.30;99.90;;;;;;5023154;28;20513;-85
2024/03/25 05:48:18;;;;;;;21.08;3.72;;;2.30;99.90;;;;;;5035957;28;20033;-85
2024/03/25 05:50:43;;;;;;;28.60;4.20;;;2.30;99.90;;;;;;5020943;28;20042;-86
2024/03/25 05:53:09;;;;;;;24.60;5.03;;;2.20;99.90;;;;;;5023746;28;20057;-86
2024/03/25 05:55:34;;;;;;;18.42;4.38;;;2.20;99.90;;;;;;5028286;28;20382;-82
2024/03/25 05:58:00;;;;;;;23.08;3.88;;;2.30;99.90;;;;;;5032049;28;20027;-84
2024/03/25 06:00:26;;;;;;;20.23;3.45;;;2.20;99.90;;;;;;5031622;28;20033;-85
2024/03/25 06:02:53;;;;;;;31.02;4.63;;;2.30;99.90;;;;;;5021616;28;20036;-85
2024/03/25 06:05:19;;;;;;;21.92;3.42;;;2.30;99.90;;;;;;5025020;28;20113;-86
2024/03/25 06:07:45;;;;;;;25.65;4.50;;;2.30;99.90;;;;;;5022369;28;20053;-87
2024/03/25 06:10:11;;;;;;;24.33;3.63;;;2.30;99.90;;;;;;5033089;28;20037;-86
2024/03/25 06:12:36;;;;;;;27.08;3.90;;;2.30;99.90;;;;;;5033700;28;20045;-86
2024/03/25 06:15:02;;;;;;;26.63;4.43;;;2.30;99.90;;;;;;5034489;28;20025;-86
2024/03/25 06:17:28;;;;;;;28.10;5.07;;;2.30;99.90;;;;;;5030943;28;20036;-86
2024/03/25 06:19:53;;;;;;;27.35;4.03;;;2.30;99.90;;;;;;5022914;28;20068;-87
2024/03/25 06:22:19;;;;;;;25.83;4.35;;;2.40;99.90;;;;;;5031293;28;20477;-87
2024/03/25 06:24:44;;;;;;;30.17;5.20;;;2.40;99.90;;;;;;5035320;28;20068;-86
2024/03/25 06:27:10;;;;;;;30.83;6.32;;;2.40;99.90;;;;;;5039301;28;20029;-87
2024/03/25 06:29:36;;;;;;;25.25;5.22;;;2.50;99.90;;;;;;5030568;28;20033;-86
2024/03/25 06:34:45;;;;;;;29.30;5.30;;;2.50;99.90;;;;;;5033133;28;20396;-87
2024/03/25 06:37:11;;;;;;;30.33;6.43;;;2.60;99.90;;;;;;5029883;28;20104;-87
2024/03/25 06:39:36;;;;;;;31.52;7.15;;;2.60;99.90;;;;;;5023187;28;20030;-89
2024/03/25 06:42:02;;;;;;;28.85;7.68;;;2.70;99.90;;;;;;5034993;28;20072;-86
2024/03/25 06:44:28;;;;;;;29.73;9.07;;;2.70;99.90;;;;;;5029435;28;20022;-82
2024/03/25 06:46:55;;;;;;;31.85;8.88;;;2.80;99.90;;;;;;5030684;28;20522;-80
2024/03/25 06:49:21;;;;;;;37.05;8.65;;;2.80;99.90;;;;;;5025917;28;20504;-83
2024/03/25 06:51:47;;;;;;;35.88;9.50;;;2.90;99.90;;;;;;5033803;28;20059;-83
2024/03/25 06:54:12;;;;;;;36.78;9.52;;;3.00;99.90;;;;;;5035724;28;20053;-84
2024/03/25 06:56:38;;;;;;;28.23;9.15;;;3.10;99.90;;;;;;5023429;28;20107;-84
2024/03/25 06:59:04;;;;;;;39.67;10.45;;;3.10;99.90;;;;;;5023713;28;20176;-83
2024/03/25 07:01:29;;;;;;;32.08;10.82;;;3.30;99.90;;;;;;5026379;28;20032;-85
2024/03/25 07:03:55;;;;;;;46.30;13.02;;;3.30;99.90;;;;;;5032085;28;20038;-85
2024/03/25 07:06:20;;;;;;;47.78;14.45;;;3.40;99.90;;;;;;5022663;28;20035;-84
2024/03/25 07:08:47;;;;;;;33.65;13.25;;;3.60;99.90;;;;;;5020178;28;20038;-84
2024/03/25 07:11:13;;;;;;;41.47;14.73;;;3.70;99.90;;;;;;5022589;28;20037;-84
2024/03/25 07:13:39;;;;;;;39.92;14.05;;;3.80;99.90;;;;;;5019035;28;20026;-85
2024/03/25 07:16:04;;;;;;;43.95;16.10;;;3.90;99.90;;;;;;5016133;28;20045;-84
2024/03/25 07:18:30;;;;;;;37.70;16.27;;;4.00;99.90;;;;;;5019622;28;20030;-84
2024/03/25 07:20:56;;;;;;;41.75;17.27;;;4.10;99.90;;;;;;5031087;28;20036;-84
2024/03/25 07:23:21;;;;;;;45.42;17.98;;;4.30;99.90;;;;;;5026356;28;20034;-84
2024/03/25 07:25:47;;;;;;;33.85;16.50;;;4.30;99.90;;;;;;5017877;28;20501;-84
2024/03/25 07:28:12;;;;;;;45.65;18.17;;;4.40;99.90;;;;;;5026882;28;20147;-84
2024/03/25 07:30:38;;;;;;;37.20;18.40;;;4.50;99.90;;;;;;5028522;28;20034;-86
2024/03/25 07:33:04;;;;;;;40.30;19.13;;;4.60;99.90;;;;;;5032308;28;20044;-87
2024/03/25 07:35:30;;;;;;;45.63;19.55;;;4.70;99.90;;;;;;5021508;28;20029;-87
2024/03/25 07:37:56;;;;;;;56.17;21.25;;;4.80;99.90;;;;;;5030042;28;20120;-86
2024/03/25 07:40:22;;;;;;;48.17;22.05;;;4.90;99.90;;;;;;5034615;28;20028;-86
2024/03/25 07:42:51;;;;;;;49.63;21.42;;;5.00;99.90;;;;;;5030390;28;20592;-86
2024/03/25 07:45:17;;;;;;;43.75;19.45;;;5.20;99.90;;;;;;5028399;28;20096;-86
2024/03/25 07:47:42;;;;;;;46.63;20.83;;;5.30;99.90;;;;;;5033948;28;20036;-86
2024/03/25 07:50:08;;;;;;;40.63;19.48;;;5.40;99.90;;;;;;5034424;28;20493;-86
2024/03/25 07:52:36;;;;;;;34.30;17.73;;;5.50;99.90;;;;;;5033558;28;20037;-86
2024/03/25 07:55:02;;;;;;;42.83;18.58;;;5.60;99.90;;;;;;5030949;28;20022;-84
2024/03/25 07:57:27;;;;;;;46.92;18.80;;;5.60;99.90;;;;;;5030969;28;20094;-84
2024/03/25 07:59:53;;;;;;;52.85;18.85;;;5.70;99.90;;;;;;5034973;28;20021;-81
2024/03/25 08:02:19;;;;;;;46.00;19.35;;;5.80;99.90;;;;;;5028176;28;20056;-83
2024/03/25 08:04:45;;;;;;;35.78;17.75;;;5.90;99.90;;;;;;5022197;28;20124;-83
2024/03/25 08:07:10;;;;;;;44.38;17.88;;;6.00;99.90;;;;;;5014408;28;20028;-82
2024/03/25 08:09:36;;;;;;;35.95;16.92;;;6.10;99.90;;;;;;5032321;28;20022;-82
2024/03/25 08:12:01;;;;;;;37.78;17.88;;;6.20;99.90;;;;;;5027893;28;20022;-84
2024/03/25 08:14:27;;;;;;;42.30;17.40;;;6.30;99.90;;;;;;5026833;28;20033;-84
2024/03/25 08:16:52;;;;;;;47.92;17.77;;;6.40;99.90;;;;;;5032462;28;20029;-78
2024/03/25 08:19:18;;;;;;;40.70;17.02;;;6.50;99.90;;;;;;5014518;28;20034;-80
2024/03/25 08:21:44;;;;;;;38.75;17.20;;;6.60;99.90;;;;;;5011548;28;20056;-81
2024/03/25 08:24:09;;;;;;;38.75;15.82;;;6.70;99.90;;;;;;5010612;28;20391;-80
2024/03/25 08:26:35;;;;;;;32.47;16.02;;;6.80;99.90;;;;;;5015734;28;20030;-81
2024/03/25 08:29:00;;;;;;;36.40;15.82;;;6.90;99.90;;;;;;5006661;28;20036;-81
2024/03/25 08:31:27;;;;;;;33.83;14.35;;;7.00;99.90;;;;;;5011721;28;20037;-81
2024/03/25 08:33:52;;;;;;;29.40;13.77;;;7.10;99.90;;;;;;5015449;28;20044;-81
2024/03/25 08:36:20;;;;;;;37.63;14.40;;;7.30;99.90;;;;;;5016171;28;20105;-80
2024/03/25 08:38:46;;;;;;;35.78;13.85;;;7.40;99.90;;;;;;5018662;28;20030;-83
2024/03/25 08:41:12;;;;;;;30.67;13.13;;;7.50;99.90;;;;;;5014350;28;20022;-80
2024/03/25 08:43:37;;;;;;;31.88;13.63;;;7.60;99.90;;;;;;5015034;28;20026;-81
2024/03/25 08:46:04;;;;;;;38.33;12.80;;;7.70;99.90;;;;;;5011150;28;20022;-80
2024/03/25 08:48:29;;;;;;;32.55;12.02;;;7.80;99.90;;;;;;5015605;28;20033;-81
2024/03/25 08:50:55;;;;;;;31.92;12.35;;;7.90;99.90;;;;;;5014297;28;20057;-81
2024/03/25 08:53:21;;;;;;;34.45;12.80;;;8.00;99.90;;;;;;5014668;28;20030;-81
2024/03/25 08:55:47;;;;;;;34.00;12.65;;;8.10;99.90;;;;;;5013723;28;20061;-82
2024/03/25 08:58:14;;;;;;;36.53;11.95;;;8.30;99.90;;;;;;5015306;28;20030;-81
2024/03/25 09:00:40;;;;;;;29.77;12.32;;;8.50;99.90;;;;;;5015900;28;20028;-82
2024/03/25 09:03:06;;;;;;;27.33;9.93;;;8.60;99.90;;;;;;5014555;28;22079;-82
2024/03/25 09:05:32;;;;;;;23.52;8.90;;;8.80;99.90;;;;;;5013258;28;20538;-81
2024/03/25 09:07:58;;;;;;;26.80;10.68;;;8.80;99.90;;;;;;5012251;28;20031;-81
2024/03/25 09:13:09;;;;;;;24.98;6.80;;;8.90;99.90;;;;;;5014316;28;20083;-82
2024/03/25 09:15:34;;;;;;;17.25;5.38;;;9.00;99.90;;;;;;5016370;28;20026;-83
2024/03/25 09:18:00;;;;;;;15.40;4.57;;;9.10;99.90;;;;;;5016544;28;20049;-82
2024/03/25 09:20:26;;;;;;;24.48;5.65;;;9.10;99.90;;;;;;5015134;28;20038;-82
2024/03/25 09:22:52;;;;;;;21.38;5.57;;;9.00;99.90;;;;;;5013453;28;20037;-82
2024/03/25 09:25:18;;;;;;;15.63;3.60;;;9.00;99.90;;;;;;5018268;28;20033;-82
2024/03/25 09:27:50;;;;;;;16.17;4.00;;;9.00;99.90;;;;;;5016620;28;20025;-82
2024/03/25 09:30:19;;;;;;;14.65;4.28;;;9.10;99.90;;;;;;5020154;28;20412;-84
2024/03/25 09:32:45;;;;;;;17.50;4.60;;;9.00;99.90;;;;;;5018914;28;20033;-82
2024/03/25 09:35:11;;;;;;;20.75;5.22;;;9.10;99.90;;;;;;5033169;28;20029;-82
2024/03/25 09:37:37;;;;;;;17.42;4.80;;;9.20;99.90;;;;;;5025902;28;20493;-81
2024/03/25 09:40:07;;;;;;;17.80;4.00;;;9.20;99.90;;;;;;5007577;28;20041;-80
2024/03/25 09:42:38;;;;;;;17.98;4.85;;;9.10;99.90;;;;;;5005745;28;21622;-82
2024/03/25 09:45:07;;;;;;;15.43;5.05;;;9.10;99.90;;;;;;5006686;28;20121;-81
2024/03/25 09:47:33;;;;;;;18.88;5.68;;;9.30;99.90;;;;;;5007749;28;20393;-81
2024/03/25 09:50:02;;;;;;;16.42;7.22;;;9.40;99.90;;;;;;5008258;28;21035;-81
2024/03/25 09:52:28;;;;;;;23.73;5.63;;;9.50;99.90;;;;;;5009387;28;20389;-81
2024/03/25 09:54:53;;;;;;;19.17;5.65;;;9.50;99.90;;;;;;5008768;28;20033;-80
2024/03/25 09:57:19;;;;;;;20.00;5.97;;;9.70;99.90;;;;;;5008508;28;20033;-81
2024/03/25 09:59:46;;;;;;;17.83;4.95;;;9.80;99.90;;;;;;5005045;28;20577;-81
2024/03/25 10:02:14;;;;;;;24.77;7.43;;;9.80;99.90;;;;;;5008103;28;20410;-81
2024/03/25 10:04:45;;;;;;;18.90;5.20;;;9.90;99.90;;;;;;5006593;28;20486;-81
2024/03/25 10:07:10;;;;;;;14.02;4.93;;;10.00;99.90;;;;;;5006472;28;20099;-81
2024/03/25 10:09:36;;;;;;;13.10;5.28;;;10.10;99.90;;;;;;5007242;28;20027;-81
2024/03/25 10:12:02;;;;;;;19.17;5.85;;;10.10;99.90;;;;;;5006934;28;20104;-82
2024/03/25 10:14:27;;;;;;;15.32;4.72;;;10.20;99.90;;;;;;5006070;28;20031;-80
2024/03/25 10:16:53;;;;;;;14.57;4.93;;;10.40;99.90;;;;;;5012429;28;20025;-82
2024/03/25 10:19:18;;;;;;;14.98;4.82;;;10.60;99.90;;;;;;5011608;28;20393;-82
2024/03/25 10:21:44;;;;;;;16.20;5.25;;;10.60;99.90;;;;;;5008396;28;20033;-82
2024/03/25 10:24:09;;;;;;;10.80;4.32;;;10.70;99.90;;;;;;5005147;28;20076;-82
2024/03/25 10:26:37;;;;;;;12.40;5.45;;;10.70;99.90;;;;;;5005741;28;20037;-83
2024/03/25 10:29:06;;;;;;;12.00;4.40;;;10.70;99.90;;;;;;5006952;28;20505;-82
2024/03/25 10:31:31;;;;;;;10.32;5.03;;;10.70;99.90;;;;;;5006494;28;20033;-84
2024/03/25 10:33:57;;;;;;;11.68;4.78;;;10.70;99.90;;;;;;5010016;28;20446;-82
2024/03/25 10:36:24;;;;;;;12.55;4.40;;;10.70;99.90;;;;;;5007345;28;20036;-82
2024/03/25 10:38:55;;;;;;;11.07;4.43;;;10.70;99.90;;;;;;5018437;28;20413;-82
2024/03/25 10:41:22;;;;;;;14.85;4.00;;;10.80;99.90;;;;;;5006175;28;20113;-82
2024/03/25 10:43:49;;;;;;;16.05;5.18;;;11.00;99.90;;;;;;5009294;28;20549;-82
2024/03/25 10:46:22;;;;;;;13.65;4.00;;;11.10;99.90;;;;;;5008580;28;20108;-84
2024/03/25 10:48:57;;;;;;;11.65;4.63;;;11.30;99.90;;;;;;5004449;28;20032;-84
2024/03/25 10:51:24;;;;;;;13.98;5.20;;;11.30;99.90;;;;;;5005317;28;20053;-83
2024/03/25 10:53:53;;;;;;;11.25;4.10;;;11.40;99.90;;;;;;5008198;28;20029;-83
2024/03/25 10:56:22;;;;;;;16.38;3.88;;;11.50;99.90;;;;;;5006034;28;20573;-83
2024/03/25 10:58:52;;;;;;;14.68;4.75;;;11.60;99.90;;;;;;5007020;28;20033;-81
2024/03/25 11:01:18;;;;;;;9.55;4.03;;;11.60;99.90;;;;;;5007819;28;20099;-81
2024/03/25 11:03:46;;;;;;;11.75;4.32;;;11.60;99.90;;;;;;5008990;28;20033;-81
2024/03/25 11:06:12;;;;;;;11.05;4.45;;;11.70;99.90;;;;;;5010149;28;20046;-81
2024/03/25 11:08:39;;;;;;;7.72;3.95;;;11.80;99.90;;;;;;5011244;28;20036;-81
2024/03/25 11:11:06;;;;;;;10.57;3.60;;;11.80;99.90;;;;;;5009501;28;20424;-84
2024/03/25 11:13:31;;;;;;;10.30;3.78;;;12.00;99.90;;;;;;5014206;28;20041;-82
2024/03/25 11:15:59;;;;;;;8.98;3.38;;;12.00;99.90;;;;;;5017328;28;20022;-82
2024/03/25 11:18:25;;;;;;;9.88;3.35;;;12.10;99.90;;;;;;5012855;28;20057;-83
2024/03/25 11:21:05;;;;;;;8.90;3.17;;;12.10;99.90;;;;;;5010158;28;20034;-81
2024/03/25 11:23:44;;;;;;;10.00;3.75;;;12.10;99.90;;;;;;5012765;28;20060;-82
2024/03/25 11:26:24;;;;;;;11.75;4.85;;;12.20;99.90;;;;;;5009506;28;20540;-81
2024/03/25 11:28:50;;;;;;;8.35;3.70;;;12.20;99.90;;;;;;5012055;28;20042;-82
2024/03/25 11:31:19;;;;;;;8.98;3.80;;;12.10;99.90;;;;;;5010699;28;20171;-81
2024/03/25 11:33:45;;;;;;;9.38;4.45;;;12.20;99.90;;;;;;5011632;28;20030;-83
2024/03/25 11:36:10;;;;;;;12.98;4.60;;;12.20;99.90;;;;;;5011792;28;20033;-81
2024/03/25 11:38:40;;;;;;;12.20;4.57;;;12.20;99.90;;;;;;5009359;28;20025;-82
2024/03/25 11:41:06;;;;;;;14.63;4.85;;;12.20;99.90;;;;;;5000828;28;20041;-81
2024/03/25 11:43:32;;;;;;;8.35;3.60;;;12.20;99.90;;;;;;5004382;28;20025;-83
2024/03/25 11:45:58;;;;;;;13.60;3.65;;;12.10;99.90;;;;;;5010581;28;20039;-83
2024/03/25 11:48:24;;;;;;;8.88;3.38;;;11.90;99.90;;;;;;5004475;28;20037;-82
2024/03/25 11:50:49;;;;;;;11.63;3.80;;;11.80;99.90;;;;;;5004992;28;20052;-83
2024/03/25 11:53:15;;;;;;;7.15;3.42;;;11.60;99.90;;;;;;5003949;28;20111;-82
2024/03/25 11:55:45;;;;;;;10.15;3.75;;;11.70;99.90;;;;;;5006262;28;20073;-81
2024/03/25 11:58:11;;;;;;;9.60;3.45;;;11.80;99.90;;;;;;5003858;28;20167;-81
2024/03/25 12:00:46;;;;;;;9.18;3.25;;;11.90;99.90;;;;;;5005745;28;20482;-81
2024/03/25 12:03:16;;;;;;;10.93;3.00;;;12.00;99.90;;;;;;5005076;28;20041;-82
2024/03/25 12:05:41;;;;;;;8.82;1.83;;;12.10;99.90;;;;;;5007262;28;20048;-81
2024/03/25 12:08:10;;;;;;;8.70;2.15;;;12.10;99.90;;;;;;5003543;28;21972;-81
2024/03/25 12:13:21;;;;;;;9.73;3.05;;;12.20;99.90;;;;;;5006612;28;20052;-79
2024/03/25 12:15:47;;;;;;;7.85;2.42;;;12.30;99.90;;;;;;5004274;28;20478;-81
2024/03/25 12:18:14;;;;;;;9.15;2.63;;;12.30;99.90;;;;;;5005668;28;20072;-82
2024/03/25 12:20:40;;;;;;;6.18;2.38;;;12.30;99.90;;;;;;5004239;28;20100;-82
2024/03/25 12:23:06;;;;;;;11.23;3.05;;;12.30;99.90;;;;;;5004672;28;20029;-82
2024/03/25 12:25:32;;;;;;;9.32;2.45;;;12.20;99.90;;;;;;5004540;28;20140;-83
2024/03/25 12:27:57;;;;;;;7.22;2.90;;;12.10;99.90;;;;;;5007763;28;20033;-81
2024/03/25 12:30:23;;;;;;;7.32;2.28;;;12.10;99.90;;;;;;5003434;28;20041;-83
2024/03/25 12:32:50;;;;;;;8.77;2.50;;;12.10;99.90;;;;;;5007207;28;20048;-85
2024/03/25 12:35:17;;;;;;;7.88;2.80;;;12.10;99.90;;;;;;5002815;28;20113;-83
2024/03/25 12:37:44;;;;;;;9.80;2.67;;;12.00;99.90;;;;;;5005463;28;20665;-83
2024/03/25 12:40:12;;;;;;;7.65;2.45;;;12.10;99.90;;;;;;5004223;28;20084;-83
2024/03/25 12:42:41;;;;;;;8.00;2.20;;;12.20;99.90;;;;;;5007124;28;20116;-83
2024/03/25 12:45:07;;;;;;;6.78;2.53;;;12.40;99.90;;;;;;5005497;28;20029;-83
2024/03/25 12:47:34;;;;;;;8.70;2.80;;;12.60;99.90;;;;;;5003110;28;20038;-84